createdAt,value
2022-11-28T00:02:23.359Z,1.15
2022-11-28T00:04:57.981Z,1.08
2022-11-28T00:07:27.982Z,1.33
2022-11-28T00:09:58.059Z,1.10
2022-11-28T00:12:30.812Z,1.40
2022-11-28T00:15:00.572Z,1.10
2022-11-28T00:17:30.583Z,1.30
2022-11-28T00:20:00.268Z,1.00
2022-11-28T00:22:30.112Z,1.30
2022-11-28T00:25:00.635Z,1.30
2022-11-28T00:27:30.622Z,1.50
2022-11-28T00:30:00.411Z,1.25
2022-11-28T00:32:30.218Z,1.50
2022-11-28T00:34:59.717Z,1.08
2022-11-28T00:37:29.321Z,1.60
2022-11-28T00:39:59.310Z,1.50
2022-11-28T00:42:29.362Z,1.40
2022-11-28T00:44:59.099Z,1.50
2022-11-28T00:47:28.714Z,1.30
2022-11-28T00:49:58.165Z,1.55
2022-11-28T00:52:28.703Z,1.60
2022-11-28T00:54:58.803Z,1.35
2022-11-28T00:57:28.343Z,1.35
2022-11-28T00:59:57.858Z,1.48
2022-11-28T01:02:27.898Z,1.67
2022-11-28T01:05:00.887Z,1.70
2022-11-28T01:07:31.082Z,1.38
2022-11-28T01:10:01.257Z,1.50
2022-11-28T01:12:30.843Z,1.15
2022-11-28T01:15:00.846Z,1.40
2022-11-28T01:17:30.479Z,1.50
2022-11-28T01:19:59.962Z,1.20
2022-11-28T01:22:31.295Z,1.75
2022-11-28T01:25:00.855Z,1.33
2022-11-28T01:27:31.745Z,1.50
2022-11-28T01:30:01.278Z,1.50
2022-11-28T01:32:31.207Z,1.70
2022-11-28T01:35:00.807Z,1.40
2022-11-28T01:37:33.428Z,1.52
2022-11-28T01:40:02.930Z,1.30
2022-11-28T01:42:32.932Z,1.60
2022-11-28T01:45:22.839Z,1.50
2022-11-28T01:47:53.421Z,1.40
2022-11-28T01:50:23.416Z,1.52
2022-11-28T01:52:54.857Z,1.58
2022-11-28T01:55:25.700Z,1.58
2022-11-28T01:57:55.450Z,1.58
2022-11-28T02:00:25.359Z,1.70
2022-11-28T02:03:10.029Z,1.65
2022-11-28T02:05:40.024Z,1.73
2022-11-28T02:08:10.122Z,1.88
2022-11-28T02:11:01.629Z,1.70
2022-11-28T02:13:53.260Z,2.40
2022-11-28T02:16:45.933Z,2.28
2022-11-28T02:19:15.512Z,2.33
2022-11-28T02:22:13.021Z,1.95
2022-11-28T02:25:03.557Z,2.22
2022-11-28T02:28:06.599Z,2.17
2022-11-28T02:31:00.266Z,2.47
2022-11-28T02:33:54.999Z,2.30
2022-11-28T02:36:52.747Z,2.38
2022-11-28T02:39:31.183Z,2.40
2022-11-28T02:42:10.795Z,2.40
2022-11-28T02:44:49.131Z,2.63
2022-11-28T02:47:30.192Z,2.50
2022-11-28T02:50:13.090Z,2.30
2022-11-28T02:52:54.347Z,2.27
2022-11-28T02:55:24.745Z,2.92
2022-11-28T02:57:55.599Z,2.05
2022-11-28T03:00:27.013Z,2.47
2022-11-28T03:03:24.312Z,2.20
2022-11-28T03:05:59.305Z,2.28
2022-11-28T03:08:41.523Z,2.58
2022-11-28T03:11:11.777Z,2.53
2022-11-28T03:14:02.655Z,2.30
2022-11-28T03:16:37.375Z,2.17
2022-11-28T03:19:23.647Z,2.40
2022-11-28T03:22:16.973Z,1.80
2022-11-28T03:24:50.767Z,2.13
2022-11-28T03:27:36.974Z,2.08
2022-11-28T03:30:25.749Z,2.45
2022-11-28T03:32:55.865Z,1.80
2022-11-28T03:35:27.602Z,2.08
2022-11-28T03:38:07.773Z,1.60
2022-11-28T03:40:46.283Z,2.05
2022-11-28T03:43:18.954Z,1.83
2022-11-28T03:45:55.356Z,2.00
2022-11-28T03:48:40.372Z,2.30
2022-11-28T03:51:11.526Z,1.95
2022-11-28T03:53:52.530Z,1.70
2022-11-28T03:56:45.664Z,1.88
2022-11-28T03:59:25.014Z,2.00
2022-11-28T04:01:54.634Z,1.73
2022-11-28T04:04:24.568Z,1.88
2022-11-28T04:07:08.046Z,1.70
2022-11-28T04:12:14.275Z,2.08
2022-11-28T04:14:50.660Z,2.10
2022-11-28T04:17:24.929Z,2.50
2022-11-28T04:20:20.243Z,2.38
2022-11-28T04:22:52.344Z,2.88
2022-11-28T04:25:23.453Z,2.97
2022-11-28T04:27:59.001Z,2.90
2022-11-28T04:30:28.903Z,3.25
2022-11-28T04:33:02.611Z,3.40
2022-11-28T04:35:39.778Z,3.55
2022-11-28T04:38:10.191Z,3.45
2022-11-28T04:41:01.436Z,4.25
2022-11-28T04:43:46.738Z,3.83
2022-11-28T04:46:40.549Z,4.47
2022-11-28T04:49:10.105Z,4.82
2022-11-28T04:52:10.610Z,5.28
2022-11-28T04:54:41.040Z,5.20
2022-11-28T04:57:20.975Z,6.55
2022-11-28T04:59:50.576Z,8.63
2022-11-28T05:02:20.086Z,10.63
2022-11-28T05:04:49.699Z,10.15
2022-11-28T05:07:19.783Z,10.63
2022-11-28T05:09:49.943Z,11.07
2022-11-28T05:12:19.529Z,11.18
2022-11-28T05:14:49.043Z,12.30
2022-11-28T05:17:18.451Z,12.52
2022-11-28T05:19:48.420Z,13.15
2022-11-28T05:22:18.046Z,12.60
2022-11-28T05:24:47.997Z,12.63
2022-11-28T05:27:18.000Z,12.48
2022-11-28T05:29:52.068Z,12.27
2022-11-28T05:32:22.003Z,12.82
2022-11-28T05:34:52.073Z,13.00
2022-11-28T05:37:22.161Z,13.55
2022-11-28T05:39:51.880Z,13.13
2022-11-28T05:42:22.104Z,13.30
2022-11-28T05:44:51.685Z,13.10
2022-11-28T05:47:21.654Z,13.20
2022-11-28T05:49:51.238Z,13.35
2022-11-28T05:52:20.702Z,12.40
2022-11-28T05:54:50.230Z,14.10
2022-11-28T05:57:19.709Z,14.45
2022-11-28T05:59:49.594Z,13.35
2022-11-28T06:02:19.215Z,13.45
2022-11-28T06:04:48.842Z,13.88
2022-11-28T06:07:19.496Z,13.38
2022-11-28T06:09:49.526Z,13.60
2022-11-28T06:12:19.568Z,14.05
2022-11-28T06:14:49.221Z,14.77
2022-11-28T06:17:18.706Z,13.68
2022-11-28T06:19:48.677Z,14.68
2022-11-28T06:22:18.402Z,14.18
2022-11-28T06:24:48.365Z,13.77
2022-11-28T06:27:17.906Z,14.55
2022-11-28T06:29:49.585Z,14.77
2022-11-28T06:32:22.179Z,14.95
2022-11-28T06:34:53.200Z,12.38
2022-11-28T06:37:22.817Z,12.50
2022-11-28T06:39:52.799Z,12.13
2022-11-28T06:42:38.560Z,12.88
2022-11-28T06:45:08.788Z,12.75
2022-11-28T06:47:38.353Z,12.48
2022-11-28T06:50:10.251Z,12.63
2022-11-28T06:52:39.857Z,13.65
2022-11-28T06:55:10.172Z,13.95
2022-11-28T06:57:40.019Z,13.38
2022-11-28T07:00:10.090Z,12.23
2022-11-28T07:02:40.128Z,12.57
2022-11-28T07:05:10.433Z,12.82
2022-11-28T07:07:53.306Z,12.75
2022-11-28T07:10:25.056Z,12.40
2022-11-28T07:13:05.395Z,13.82
2022-11-28T07:15:35.354Z,14.20
2022-11-28T07:18:05.306Z,14.80
2022-11-28T07:20:35.334Z,13.20
2022-11-28T07:23:04.959Z,14.48
2022-11-28T07:25:43.716Z,15.13
2022-11-28T07:28:20.669Z,14.20
2022-11-28T07:31:11.841Z,15.60
2022-11-28T07:33:42.882Z,14.48
2022-11-28T07:36:17.076Z,14.63
2022-11-28T07:38:53.797Z,15.40
2022-11-28T07:41:26.498Z,14.60
2022-11-28T07:44:01.554Z,14.60
2022-11-28T07:46:32.131Z,15.07
2022-11-28T07:49:02.883Z,14.15
2022-11-28T07:51:33.870Z,14.40
2022-11-28T07:54:04.697Z,14.82
2022-11-28T07:57:04.628Z,14.48
2022-11-28T07:59:26.264Z,13.18
2022-11-28T08:01:56.390Z,12.20
2022-11-28T08:04:26.666Z,12.30
2022-11-28T08:06:57.644Z,12.07
2022-11-28T08:09:27.424Z,10.60
2022-11-28T08:11:57.530Z,12.23
2022-11-28T08:14:27.304Z,10.02
2022-11-28T08:16:56.745Z,10.32
2022-11-28T08:19:29.377Z,10.27
2022-11-28T08:22:01.973Z,9.75
2022-11-28T08:24:32.397Z,10.27
2022-11-28T08:27:02.027Z,9.95
2022-11-28T08:29:32.033Z,10.20
2022-11-28T08:32:06.932Z,10.52
2022-11-28T08:34:42.680Z,9.80
2022-11-28T08:37:12.848Z,9.20
2022-11-28T08:39:42.721Z,8.95
2022-11-28T08:42:12.858Z,9.75
2022-11-28T08:44:42.914Z,9.25
2022-11-28T08:47:12.945Z,9.50
2022-11-28T08:49:42.870Z,8.68
2022-11-28T08:52:12.610Z,9.63
2022-11-28T08:54:43.150Z,9.10
2022-11-28T08:57:13.086Z,9.40
2022-11-28T08:59:42.942Z,9.07
2022-11-28T09:02:15.923Z,9.30
2022-11-28T09:04:46.537Z,9.52
2022-11-28T09:07:17.331Z,9.27
2022-11-28T09:09:47.960Z,8.77
2022-11-28T09:12:18.654Z,8.70
2022-11-28T09:14:48.710Z,8.85
2022-11-28T09:17:18.293Z,8.45
2022-11-28T09:19:48.510Z,8.07
2022-11-28T09:22:18.574Z,6.30
2022-11-28T09:24:48.217Z,6.63
2022-11-28T09:27:18.510Z,6.40
2022-11-28T09:29:48.184Z,6.30
2022-11-28T09:32:18.172Z,6.28
2022-11-28T09:34:52.681Z,6.57
2022-11-28T09:37:22.888Z,6.90
2022-11-28T09:40:12.617Z,5.75
2022-11-28T09:42:44.756Z,5.90
2022-11-28T09:45:19.890Z,5.70
2022-11-28T09:47:55.103Z,6.00
2022-11-28T09:50:33.249Z,5.18
2022-11-28T09:53:03.388Z,5.25
2022-11-28T09:55:37.253Z,5.22
2022-11-28T09:58:27.981Z,4.72
2022-11-28T10:01:16.400Z,5.22
2022-11-28T10:04:16.728Z,5.13
2022-11-28T10:07:07.207Z,5.30
2022-11-28T10:10:01.320Z,4.65
2022-11-28T10:15:05.860Z,4.60
2022-11-28T10:18:00.210Z,4.38
2022-11-28T10:20:40.435Z,4.50
2022-11-28T10:23:30.585Z,4.45
2022-11-28T10:26:18.556Z,4.30
2022-11-28T10:28:49.627Z,4.50
2022-11-28T10:31:41.726Z,4.65
2022-11-28T10:34:11.223Z,4.60
2022-11-28T10:36:47.366Z,4.63
2022-11-28T10:39:17.439Z,4.30
2022-11-28T10:42:14.780Z,4.07
2022-11-28T10:44:44.721Z,4.45
2022-11-28T10:47:36.939Z,4.93
2022-11-28T10:50:21.327Z,4.68
2022-11-28T10:52:50.946Z,4.07
2022-11-28T10:55:45.750Z,4.22
2022-11-28T10:58:23.571Z,4.70
2022-11-28T11:00:57.299Z,4.43
2022-11-28T11:03:29.639Z,4.97
2022-11-28T11:06:01.317Z,4.38
2022-11-28T11:08:35.420Z,4.38
2022-11-28T11:11:05.064Z,4.32
2022-11-28T11:13:36.542Z,4.78
2022-11-28T11:16:11.879Z,4.90
2022-11-28T11:18:45.104Z,4.53
2022-11-28T11:21:23.258Z,4.90
2022-11-28T11:24:13.242Z,5.25
2022-11-28T11:26:44.763Z,5.00
2022-11-28T11:29:25.188Z,4.75
2022-11-28T11:31:55.286Z,5.57
2022-11-28T11:34:25.611Z,4.70
2022-11-28T11:36:55.224Z,5.15
2022-11-28T11:39:26.288Z,5.30
2022-11-28T11:42:01.809Z,5.20
2022-11-28T11:44:37.891Z,5.50
2022-11-28T11:47:07.841Z,5.75
2022-11-28T11:49:51.065Z,5.15
2022-11-28T11:52:24.709Z,4.70
2022-11-28T11:55:22.905Z,4.97
2022-11-28T11:57:53.862Z,4.70
2022-11-28T12:00:25.817Z,5.10
2022-11-28T12:03:08.025Z,4.80
2022-11-28T12:06:14.909Z,4.40
2022-11-28T12:08:59.730Z,5.15
2022-11-28T12:11:36.805Z,4.60
2022-11-28T12:14:29.374Z,4.57
2022-11-28T12:17:47.371Z,4.13
2022-11-28T12:20:24.095Z,4.53
2022-11-28T12:23:06.427Z,4.63
2022-11-28T12:25:45.707Z,4.30
2022-11-28T12:28:15.780Z,4.28
2022-11-28T12:31:09.163Z,4.53
2022-11-28T12:34:00.275Z,4.47
2022-11-28T12:36:29.760Z,4.38
2022-11-28T12:39:18.679Z,3.60
2022-11-28T12:42:10.227Z,4.07
2022-11-28T12:44:58.766Z,3.88
2022-11-28T12:47:41.038Z,4.32
2022-11-28T12:50:17.112Z,3.83
2022-11-28T12:53:02.695Z,4.18
2022-11-28T12:55:32.763Z,3.90
2022-11-28T12:58:23.424Z,3.95
2022-11-28T13:01:31.623Z,3.90
2022-11-28T13:04:28.273Z,4.53
2022-11-28T13:07:14.334Z,4.13
2022-11-28T13:10:16.255Z,3.55
2022-11-28T13:12:46.523Z,4.00
2022-11-28T13:15:39.600Z,3.90
2022-11-28T13:18:30.639Z,3.42
2022-11-28T13:21:27.470Z,3.72
2022-11-28T13:23:59.836Z,3.50
2022-11-28T13:26:46.251Z,3.85
2022-11-28T13:29:32.564Z,3.38
2022-11-28T13:32:45.637Z,3.13
2022-11-28T13:35:19.222Z,3.83
2022-11-28T13:40:56.012Z,3.85
2022-11-28T13:44:16.657Z,3.30
2022-11-28T13:46:46.970Z,3.70
2022-11-28T13:49:31.386Z,3.90
2022-11-28T13:52:19.148Z,3.65
2022-11-28T13:54:52.029Z,3.42
2022-11-28T13:57:32.206Z,3.40
2022-11-28T14:00:05.553Z,3.47
2022-11-28T14:02:55.474Z,3.30
2022-11-28T14:05:36.356Z,3.17
2022-11-28T14:08:07.118Z,3.35
2022-11-28T14:11:01.924Z,3.50
2022-11-28T14:13:40.486Z,3.40
2022-11-28T14:16:31.975Z,3.50
2022-11-28T14:19:27.845Z,3.33
2022-11-28T14:21:57.466Z,3.28
2022-11-28T14:25:01.406Z,3.30
2022-11-28T14:27:35.792Z,3.60
2022-11-28T14:30:08.601Z,3.40
2022-11-28T14:32:42.363Z,3.30
2022-11-28T14:35:52.115Z,3.22
2022-11-28T14:38:48.616Z,4.13
2022-11-28T14:41:20.229Z,3.75
2022-11-28T14:43:50.302Z,3.50
2022-11-28T14:46:21.433Z,3.92
2022-11-28T14:48:59.944Z,3.45
2022-11-28T14:52:15.883Z,3.33
2022-11-28T14:54:45.057Z,3.60
2022-11-28T14:57:25.795Z,3.80
2022-11-28T14:59:57.285Z,3.42
2022-11-28T15:02:39.268Z,4.00
2022-11-28T15:05:20.848Z,3.80
2022-11-28T15:08:08.602Z,4.15
2022-11-28T15:10:47.523Z,3.70
2022-11-28T15:13:36.875Z,3.90
2022-11-28T15:16:07.822Z,3.70
2022-11-28T15:18:38.070Z,3.28
2022-11-28T15:21:11.573Z,3.80
2022-11-28T15:23:42.286Z,3.53
2022-11-28T15:26:21.420Z,3.90
2022-11-28T15:28:51.606Z,3.60
2022-11-28T15:31:24.870Z,3.95
2022-11-28T15:33:55.147Z,3.80
2022-11-28T15:36:28.924Z,3.35
2022-11-28T15:38:58.926Z,3.63
2022-11-28T15:41:28.909Z,3.55
2022-11-28T15:43:58.521Z,3.30
2022-11-28T15:46:31.918Z,3.20
2022-11-28T15:49:06.337Z,3.88
2022-11-28T15:51:39.849Z,3.63
2022-11-28T15:54:33.910Z,3.50
2022-11-28T15:57:04.098Z,4.13
2022-11-28T15:59:34.349Z,3.60
2022-11-28T16:02:14.833Z,3.70
2022-11-28T16:04:46.338Z,4.18
2022-11-28T16:07:16.910Z,3.78
2022-11-28T16:09:57.266Z,3.85
2022-11-28T16:12:27.619Z,3.90
2022-11-28T16:15:02.770Z,3.30
2022-11-28T16:17:34.641Z,3.50
2022-11-28T16:20:04.911Z,5.13
2022-11-28T16:22:38.911Z,3.72
2022-11-28T16:25:22.702Z,3.60
2022-11-28T16:30:32.955Z,3.17
2022-11-28T16:33:03.050Z,3.72
2022-11-28T16:35:32.867Z,3.58
2022-11-28T16:38:14.967Z,3.70
2022-11-28T16:40:44.575Z,3.60
2022-11-28T16:43:21.657Z,3.38
2022-11-28T16:46:02.327Z,3.65
2022-11-28T16:48:39.269Z,3.95
2022-11-28T16:51:15.514Z,3.13
2022-11-28T16:53:51.556Z,3.90
2022-11-28T16:56:47.919Z,3.45
2022-11-28T16:59:19.460Z,4.03
2022-11-28T17:01:53.154Z,3.80
2022-11-28T17:04:27.385Z,4.20
2022-11-28T17:06:58.971Z,4.07
2022-11-28T17:09:28.867Z,4.20
2022-11-28T17:12:06.373Z,4.80
2022-11-28T17:14:36.205Z,4.20
2022-11-28T17:17:14.793Z,4.70
2022-11-28T17:19:45.437Z,4.97
2022-11-28T17:22:22.959Z,4.65
2022-11-28T17:24:53.337Z,4.88
2022-11-28T17:27:22.778Z,4.97
2022-11-28T17:29:52.674Z,5.28
2022-11-28T17:32:22.699Z,5.75
2022-11-28T17:34:52.284Z,5.18
2022-11-28T17:37:22.240Z,6.03
2022-11-28T17:40:10.769Z,5.95
2022-11-28T17:42:40.399Z,6.07
2022-11-28T17:45:16.139Z,6.30
2022-11-28T17:47:46.224Z,6.15
2022-11-28T17:50:16.341Z,6.15
2022-11-28T17:52:46.869Z,6.07
2022-11-28T17:55:19.477Z,6.25
2022-11-28T18:00:19.532Z,6.63
2022-11-28T18:02:49.483Z,6.93
2022-11-28T18:05:19.986Z,6.68
2022-11-28T18:07:50.282Z,6.68
2022-11-28T18:10:20.003Z,6.10
2022-11-28T18:12:49.794Z,6.38
2022-11-28T18:15:20.304Z,6.50
2022-11-28T18:17:50.361Z,6.75
2022-11-28T18:20:20.830Z,6.90
2022-11-28T18:22:50.825Z,6.22
2022-11-28T18:25:20.830Z,7.13
2022-11-28T18:27:51.141Z,6.65
2022-11-28T18:30:20.935Z,6.68
2022-11-28T18:32:51.030Z,6.70
2022-11-28T18:35:20.812Z,6.70
2022-11-28T18:37:50.990Z,7.00
2022-11-28T18:40:20.600Z,6.78
2022-11-28T18:42:50.131Z,7.03
2022-11-28T18:45:19.663Z,7.40
2022-11-28T18:47:49.463Z,7.15
2022-11-28T18:50:20.198Z,7.32
2022-11-28T18:52:49.807Z,7.15
2022-11-28T18:55:21.063Z,7.13
2022-11-28T18:57:50.545Z,7.15
2022-11-28T19:00:20.732Z,7.70
2022-11-28T19:02:53.218Z,7.43
2022-11-28T19:05:23.193Z,7.65
2022-11-28T19:07:53.191Z,7.40
2022-11-28T19:10:23.214Z,7.88
2022-11-28T19:12:53.573Z,7.40
2022-11-28T19:15:23.559Z,7.20
2022-11-28T19:17:53.139Z,7.05
2022-11-28T19:20:25.394Z,6.90
2022-11-28T19:22:55.583Z,7.43
2022-11-28T19:25:25.125Z,7.25
2022-11-28T19:27:54.648Z,6.90
2022-11-28T19:30:25.111Z,7.30
2022-11-28T19:32:55.003Z,7.15
2022-11-28T19:35:24.548Z,7.10
2022-11-28T19:37:54.079Z,6.82
2022-11-28T19:40:24.483Z,7.35
2022-11-28T19:42:54.634Z,7.25
2022-11-28T19:45:25.789Z,7.25
2022-11-28T19:47:55.868Z,6.55
2022-11-28T19:50:25.482Z,7.25
2022-11-28T19:52:55.699Z,6.85
2022-11-28T19:55:25.905Z,6.90
2022-11-28T19:57:55.365Z,7.18
2022-11-28T20:00:26.289Z,7.00
2022-11-28T20:02:56.463Z,6.80
2022-11-28T20:05:26.032Z,6.47
2022-11-28T20:07:58.501Z,6.68
2022-11-28T20:10:28.825Z,6.78
2022-11-28T20:12:58.486Z,6.70
2022-11-28T20:15:28.024Z,6.35
2022-11-28T20:17:57.533Z,7.30
2022-11-28T20:20:28.157Z,6.97
2022-11-28T20:22:58.297Z,6.68
2022-11-28T20:25:28.324Z,6.05
2022-11-28T20:27:58.433Z,6.47
2022-11-28T20:30:28.459Z,6.40
2022-11-28T20:32:58.469Z,6.90
2022-11-28T20:35:28.755Z,5.95
2022-11-28T20:37:58.375Z,6.50
2022-11-28T20:40:27.846Z,6.03
2022-11-28T20:43:00.214Z,5.78
2022-11-28T20:45:29.768Z,6.57
2022-11-28T20:47:59.782Z,6.32
2022-11-28T20:50:29.736Z,5.93
2022-11-28T20:52:59.290Z,6.60
2022-11-28T20:55:29.360Z,5.57
2022-11-28T20:57:58.888Z,5.65
2022-11-28T21:00:31.236Z,5.43
2022-11-28T21:03:02.005Z,5.72
2022-11-28T21:05:32.325Z,5.55
2022-11-28T21:08:02.434Z,5.63
2022-11-28T21:10:33.879Z,4.93
2022-11-28T21:13:04.146Z,5.07
2022-11-28T21:15:34.268Z,5.38
2022-11-28T21:18:04.935Z,4.63
2022-11-28T21:20:34.958Z,5.05
2022-11-28T21:23:04.935Z,5.00
2022-11-28T21:25:38.464Z,5.00
2022-11-28T21:28:09.908Z,4.55
2022-11-28T21:30:46.826Z,4.80
2022-11-28T21:33:17.189Z,4.57
2022-11-28T21:35:46.883Z,5.18
2022-11-28T21:38:16.529Z,4.90
2022-11-28T21:40:53.937Z,4.60
2022-11-28T21:43:24.300Z,4.78
2022-11-28T21:45:54.251Z,4.55
2022-11-28T21:48:25.642Z,4.32
2022-11-28T21:50:55.896Z,4.00
2022-11-28T21:53:25.693Z,4.40
2022-11-28T21:55:56.271Z,4.32
2022-11-28T21:58:26.935Z,4.13
2022-11-28T22:00:58.487Z,4.40
2022-11-28T22:03:29.035Z,4.20
2022-11-28T22:06:07.509Z,3.70
2022-11-28T22:08:37.300Z,4.03
2022-11-28T22:11:09.794Z,4.45
2022-11-28T22:16:17.598Z,4.10
2022-11-28T22:18:47.962Z,4.05
2022-11-28T22:24:14.867Z,3.63
2022-11-28T22:26:46.262Z,3.65
2022-11-28T22:29:17.156Z,3.80
2022-11-28T22:31:47.464Z,4.00
2022-11-28T22:34:17.666Z,3.90
2022-11-28T22:36:47.354Z,3.85
2022-11-28T22:39:17.406Z,3.95
2022-11-28T22:41:47.221Z,4.45
2022-11-28T22:44:16.894Z,3.60
2022-11-28T22:46:46.560Z,3.83
2022-11-28T22:49:16.416Z,3.70
2022-11-28T22:51:46.343Z,3.90
2022-11-28T22:54:16.700Z,3.95
2022-11-28T22:56:47.108Z,3.83
2022-11-28T22:59:16.902Z,3.53
2022-11-28T23:01:47.223Z,3.80
2022-11-28T23:04:16.983Z,3.60
2022-11-28T23:06:46.562Z,4.30
2022-11-28T23:09:16.064Z,3.70
2022-11-28T23:11:46.872Z,3.33
2022-11-28T23:14:16.959Z,3.63
2022-11-28T23:16:47.135Z,3.30
2022-11-28T23:19:19.465Z,3.40
2022-11-28T23:21:50.123Z,3.53
2022-11-28T23:24:23.623Z,3.03
2022-11-28T23:26:54.912Z,3.42
2022-11-28T23:29:25.476Z,2.97
2022-11-28T23:31:55.016Z,3.25
2022-11-28T23:34:27.017Z,3.30
2022-11-28T23:36:56.859Z,3.38
2022-11-28T23:39:27.843Z,3.00
2022-11-28T23:42:06.812Z,3.20
2022-11-28T23:44:37.020Z,3.17
2022-11-28T23:47:07.114Z,3.25
2022-11-28T23:49:37.493Z,3.30
2022-11-28T23:52:07.100Z,2.95
2022-11-28T23:54:36.712Z,3.38
2022-11-28T23:57:06.245Z,2.80
2022-11-28T23:59:36.150Z,2.90
